Time;durP1;ratioP1;P1;durP2;ratioP2;P2;SDS_P1;SDS_P2;PMS_P1;PMS_P2;Temp;Humidity;BMP_temperature;BMP_pressure;BME280_temperature;BME280_humidity;BME280_pressure;Samples;Min_cycle;Max_cycle;Signal;HPM_P1;HPM_P2
2023/10/22 00:02:34;;;;;;;;;;;17.70;61.30;;;;;;10231805;28;93664;-68
2023/10/22 00:07:36;;;;;;;;;;;17.70;60.90;;;;;;10206700;28;94552;-67
2023/10/22 00:12:38;;;;;;;;;;;17.70;60.80;;;;;;10220506;28;94637;-68
2023/10/22 00:17:41;;;;;;;;;;;17.70;60.50;;;;;;10244740;28;94898;-67
2023/10/22 00:22:43;;;;;;;;;;;17.70;60.40;;;;;;10240812;28;93823;-69
2023/10/22 00:27:46;;;;;;;;;;;17.70;60.10;;;;;;10240879;28;93854;-68
2023/10/22 00:32:48;;;;;;;;;;;17.80;60.10;;;;;;10231081;28;94223;-68
2023/10/22 00:37:50;;;;;;;;;;;17.80;59.90;;;;;;10205618;28;97421;-68
2023/10/22 00:42:53;;;;;;;;;;;17.80;59.70;;;;;;10218165;28;93847;-68
2023/10/22 00:47:55;;;;;;;;;;;17.80;59.60;;;;;;10240864;28;94726;-67
2023/10/22 00:52:57;;;;;;;;;;;17.80;59.40;;;;;;10226403;28;93960;-67
2023/10/22 00:58:00;;;;;;;;;;;17.80;59.30;;;;;;10221748;28;97089;-67
2023/10/22 01:03:03;;;;;;;;;;;17.80;59.10;;;;;;10610415;22;94761;-71
2023/10/22 01:08:08;;;;;;;;;;;17.80;59.00;;;;;;10225699;28;93541;-71
2023/10/22 01:13:10;;;;;;;;;;;17.80;58.90;;;;;;10240405;28;92639;-71
2023/10/22 01:18:12;;;;;;;;;;;17.80;58.80;;;;;;10229391;28;94837;-71
2023/10/22 01:23:14;;;;;;;;;;;17.90;58.80;;;;;;10226626;28;93304;-70
2023/10/22 01:28:17;;;;;;;;;;;17.80;58.50;;;;;;10232306;28;96971;-71
2023/10/22 01:33:19;;;;;;;;;;;17.80;58.50;;;;;;10233681;28;93802;-71
2023/10/22 01:38:21;;;;;;;;;;;17.80;58.50;;;;;;10234077;28;93594;-69
2023/10/22 01:43:22;;;;;;;;;;;17.80;58.30;;;;;;10207590;28;93761;-69
2023/10/22 01:48:24;;;;;;;;;;;17.80;58.20;;;;;;10235213;28;94510;-70
2023/10/22 01:53:26;;;;;;;;;;;17.80;58.10;;;;;;10222047;28;94246;-71
2023/10/22 01:58:28;;;;;;;;;;;17.80;58.10;;;;;;10234179;28;93426;-71
2023/10/22 02:03:32;;;;;;;;;;;17.80;58.00;;;;;;10236568;28;93911;-71
2023/10/22 02:08:34;;;;;;;;;;;17.80;57.90;;;;;;10237432;28;93475;-70
2023/10/22 02:13:36;;;;;;;;;;;17.80;57.90;;;;;;10242315;28;94232;-70
2023/10/22 02:18:38;;;;;;;;;;;17.80;57.90;;;;;;10248139;28;96505;-71
2023/10/22 02:23:40;;;;;;;;;;;17.80;57.80;;;;;;10228255;28;93699;-70
2023/10/22 02:28:41;;;;;;;;;;;17.80;57.70;;;;;;10244018;28;93550;-70
2023/10/22 02:33:43;;;;;;;;;;;17.70;57.60;;;;;;10237578;28;94469;-71
2023/10/22 02:38:45;;;;;;;;;;;17.70;57.60;;;;;;10251302;28;94213;-71
2023/10/22 02:43:47;;;;;;;;;;;17.70;57.60;;;;;;10252015;28;93491;-71
2023/10/22 02:48:49;;;;;;;;;;;17.70;57.40;;;;;;10242045;28;94426;-71
2023/10/22 02:53:51;;;;;;;;;;;17.70;57.60;;;;;;10223426;28;93549;-71
2023/10/22 02:58:53;;;;;;;;;;;17.70;57.40;;;;;;10239798;28;94909;-72
2023/10/22 03:03:55;;;;;;;;;;;17.70;57.50;;;;;;10250651;28;94267;-71
2023/10/22 03:08:57;;;;;;;;;;;17.70;57.30;;;;;;10230272;28;96179;-71
2023/10/22 03:13:59;;;;;;;;;;;17.70;57.40;;;;;;10247857;28;94797;-70
2023/10/22 03:19:01;;;;;;;;;;;17.70;57.30;;;;;;10247811;28;93086;-71
2023/10/22 03:24:03;;;;;;;;;;;17.70;57.20;;;;;;10243405;28;95040;-71
2023/10/22 03:29:06;;;;;;;;;;;17.70;57.20;;;;;;10243298;28;94724;-70
2023/10/22 03:34:08;;;;;;;;;;;17.70;57.10;;;;;;10241418;28;93443;-70
2023/10/22 03:39:10;;;;;;;;;;;17.70;57.10;;;;;;10231467;28;94770;-70
2023/10/22 03:44:13;;;;;;;;;;;17.70;57.10;;;;;;10220410;28;92772;-70
2023/10/22 03:49:15;;;;;;;;;;;17.60;57.00;;;;;;10214479;28;94037;-70
2023/10/22 03:54:16;;;;;;;;;;;17.70;57.00;;;;;;10224297;28;93490;-70
2023/10/22 03:59:18;;;;;;;;;;;17.60;56.90;;;;;;10230467;28;97141;-71
2023/10/22 04:04:20;;;;;;;;;;;17.60;56.90;;;;;;10240830;28;94587;-71
2023/10/22 04:09:22;;;;;;;;;;;17.60;56.80;;;;;;10236846;28;94584;-71
2023/10/22 04:14:24;;;;;;;;;;;17.70;56.90;;;;;;10234841;28;93769;-72
2023/10/22 04:19:26;;;;;;;;;;;17.60;56.80;;;;;;10230720;28;94422;-71
2023/10/22 04:24:28;;;;;;;;;;;17.60;56.80;;;;;;10231358;28;93447;-71
2023/10/22 04:29:29;;;;;;;;;;;17.60;56.70;;;;;;10240529;28;94526;-70
2023/10/22 04:34:35;;;;;;;;;;;17.60;56.80;;;;;;10241153;28;92956;-71
2023/10/22 04:39:37;;;;;;;;;;;17.70;56.90;;;;;;10240343;28;93618;-71
2023/10/22 04:44:41;;;;;;;;;;;17.60;56.70;;;;;;10240961;28;93380;-71
2023/10/22 04:49:44;;;;;;;;;;;17.60;56.80;;;;;;10227398;28;96747;-71
2023/10/22 04:54:46;;;;;;;;;;;17.70;56.70;;;;;;10230346;28;93836;-71
2023/10/22 04:59:48;;;;;;;;;;;17.70;56.70;;;;;;10236071;28;94412;-72
2023/10/22 05:04:50;;;;;;;;;;;17.70;56.70;;;;;;10240334;28;93597;-71
2023/10/22 05:09:52;;;;;;;;;;;17.70;56.60;;;;;;10239543;28;93755;-71
2023/10/22 05:14:54;;;;;;;;;;;17.70;56.60;;;;;;10208969;28;94366;-71
2023/10/22 05:19:56;;;;;;;;;;;17.70;56.50;;;;;;10233417;28;94605;-71
2023/10/22 05:24:58;;;;;;;;;;;17.70;56.50;;;;;;10215663;28;92732;-70
2023/10/22 05:30:01;;;;;;;;;;;17.70;56.30;;;;;;10232227;28;96357;-70
2023/10/22 05:35:03;;;;;;;;;;;17.70;56.20;;;;;;10231595;28;93540;-69
2023/10/22 05:40:09;;;;;;;;;;;17.70;56.10;;;;;;10222550;28;98523;-70
2023/10/22 05:45:10;;;;;;;;;;;17.70;56.10;;;;;;10237194;28;94572;-70
2023/10/22 05:50:13;;;;;;;;;;;17.70;56.00;;;;;;10237072;28;94763;-71
2023/10/22 05:55:15;;;;;;;;;;;17.70;56.00;;;;;;10205375;28;94665;-71
2023/10/22 06:00:17;;;;;;;;;;;17.70;56.00;;;;;;10205762;28;93398;-71
2023/10/22 06:05:19;;;;;;;;;;;17.70;56.20;;;;;;10217258;28;94160;-71
2023/10/22 06:10:27;;;;;;;;;;;17.70;56.30;;;;;;10232720;28;94059;-72
2023/10/22 06:15:29;;;;;;;;;;;17.70;56.30;;;;;;10237580;28;92415;-71
2023/10/22 06:20:34;;;;;;;;;;;17.70;56.40;;;;;;10233313;28;93799;-71
2023/10/22 06:25:36;;;;;;;;;;;17.70;56.40;;;;;;10240494;28;93358;-72
2023/10/22 06:30:38;;;;;;;;;;;17.70;56.40;;;;;;10233572;28;97367;-71
2023/10/22 06:35:40;;;;;;;;;;;17.70;56.40;;;;;;10235897;28;93946;-71
2023/10/22 06:40:41;;;;;;;;;;;17.70;56.50;;;;;;10235254;28;93412;-72
2023/10/22 06:45:44;;;;;;;;;;;17.70;56.50;;;;;;10225720;28;93645;-72
2023/10/22 06:50:46;;;;;;;;;;;17.70;56.40;;;;;;10228821;28;94874;-71
2023/10/22 06:55:47;;;;;;;;;;;17.70;56.40;;;;;;10236875;28;93775;-72
2023/10/22 07:00:49;;;;;;;;;;;17.70;56.40;;;;;;10241152;28;93040;-72
2023/10/22 07:05:51;;;;;;;;;;;17.70;56.70;;;;;;10242098;28;92956;-68
2023/10/22 07:10:53;;;;;;;;;;;17.70;56.90;;;;;;10231413;28;93499;-72
2023/10/22 07:15:55;;;;;;;;;;;17.70;58.80;;;;;;10218789;28;94526;-73
2023/10/22 07:20:59;;;;;;;;;;;17.70;59.50;;;;;;10241284;28;96368;-75
2023/10/22 07:26:01;;;;;;;;;;;17.70;59.90;;;;;;10221767;28;93957;-73
2023/10/22 07:31:03;;;;;;;;;;;17.70;59.90;;;;;;10235202;28;95982;-73
2023/10/22 07:36:05;;;;;;;;;;;17.70;59.90;;;;;;10247193;28;93215;-72
2023/10/22 07:41:13;;;;;;;;;;;17.70;60.00;;;;;;10240169;28;94819;-73
2023/10/22 07:46:16;;;;;;;;;;;17.60;59.80;;;;;;10243949;28;94430;-73
2023/10/22 07:51:18;;;;;;;;;;;17.60;60.10;;;;;;10240247;28;93101;-73
2023/10/22 07:56:20;;;;;;;;;;;17.60;60.10;;;;;;10241060;28;93052;-72
2023/10/22 08:01:23;;;;;;;;;;;17.50;60.30;;;;;;10226040;28;94660;-73
2023/10/22 08:06:25;;;;;;;;;;;17.60;60.60;;;;;;10234190;28;93468;-72
2023/10/22 08:11:27;;;;;;;;;;;17.60;60.80;;;;;;10232384;28;96932;-72
2023/10/22 08:16:31;;;;;;;;;;;17.50;61.10;;;;;;10238508;28;93486;-73
2023/10/22 08:21:32;;;;;;;;;;;17.50;61.30;;;;;;10230168;28;94558;-73
2023/10/22 08:26:34;;;;;;;;;;;17.50;61.00;;;;;;10242146;28;93474;-73
2023/10/22 08:31:36;;;;;;;;;;;17.50;60.90;;;;;;10223657;28;95012;-72
2023/10/22 08:36:38;;;;;;;;;;;17.50;61.10;;;;;;10241695;28;94298;-73
2023/10/22 08:41:44;;;;;;;;;;;17.50;61.10;;;;;;10236405;28;93711;-74
2023/10/22 08:46:46;;;;;;;;;;;17.60;61.20;;;;;;10240523;28;93786;-73
2023/10/22 08:51:49;;;;;;;;;;;17.60;61.30;;;;;;10197795;28;94055;-73
2023/10/22 08:56:51;;;;;;;;;;;17.60;61.60;;;;;;10226386;28;93578;-73
2023/10/22 09:01:53;;;;;;;;;;;17.60;61.60;;;;;;10217159;28;96970;-73
2023/10/22 09:06:55;;;;;;;;;;;17.60;61.50;;;;;;10228972;28;94252;-73
2023/10/22 09:11:57;;;;;;;;;;;17.70;61.60;;;;;;10237682;28;94071;-73
2023/10/22 09:17:13;;;;;;;;;;;17.70;61.30;;;;;;10236479;28;94000;-74
2023/10/22 09:22:22;;;;;;;;;;;17.70;60.70;;;;;;10237862;28;95099;-73
2023/10/22 09:27:27;;;;;;;;;;;17.70;60.30;;;;;;10237878;28;94737;-73
2023/10/22 09:32:29;;;;;;;;;;;17.80;60.00;;;;;;10236543;28;94520;-73
2023/10/22 09:37:47;;;;;;;;;;;17.80;60.10;;;;;;10218620;28;93323;-73
2023/10/22 09:42:50;;;;;;;;;;;17.90;59.90;;;;;;10226364;28;93394;-73
2023/10/22 09:47:54;;;;;;;;;;;17.90;59.80;;;;;;10218084;28;94150;-73
2023/10/22 09:53:15;;;;;;;;;;;18.00;59.40;;;;;;10233695;28;96977;-73
2023/10/22 09:58:18;;;;;;;;;;;18.00;59.20;;;;;;10233570;28;94642;-72
2023/10/22 10:03:20;;;;;;;;;;;18.00;58.80;;;;;;10238272;28;94582;-73
2023/10/22 10:08:23;;;;;;;;;;;18.00;58.50;;;;;;10230214;28;93418;-73
2023/10/22 10:13:25;;;;;;;;;;;18.00;58.30;;;;;;10222299;28;93467;-73
2023/10/22 10:18:45;;;;;;;;;;;18.00;58.10;;;;;;10236189;28;94343;-72
2023/10/22 10:24:06;;;;;;;;;;;18.00;59.30;;;;;;10223505;28;94079;-70
2023/10/22 10:29:15;;;;;;;;;;;18.00;59.70;;;;;;10216745;28;93746;-69
2023/10/22 10:34:34;;;;;;;;;;;18.00;60.50;;;;;;10235526;28;93900;-71
2023/10/22 10:39:40;;;;;;;;;;;18.10;61.40;;;;;;10232483;28;94318;-71
2023/10/22 10:44:54;;;;;;;;;;;18.10;62.00;;;;;;10237072;28;97050;-70
2023/10/22 10:50:03;;;;;;;;;;;18.20;62.50;;;;;;10220938;28;94455;-71
2023/10/22 10:55:09;;;;;;;;;;;18.30;64.20;;;;;;10221488;28;93322;-72
2023/10/22 11:00:19;;;;;;;;;;;18.30;64.20;;;;;;10209068;28;94458;-71
2023/10/22 11:05:31;;;;;;;;;;;18.30;63.60;;;;;;10229732;28;94648;-70
2023/10/22 11:10:32;;;;;;;;;;;18.30;63.50;;;;;;10239896;28;93454;-71
2023/10/22 11:15:36;;;;;;;;;;;18.30;63.40;;;;;;10236014;28;94424;-70
2023/10/22 11:20:39;;;;;;;;;;;18.20;63.30;;;;;;10220459;28;93888;-70
2023/10/22 11:25:46;;;;;;;;;;;18.20;63.40;;;;;;10222097;28;93461;-70
2023/10/22 11:30:48;;;;;;;;;;;18.10;63.40;;;;;;10221313;28;93464;-70
2023/10/22 11:35:51;;;;;;;;;;;18.10;63.50;;;;;;10236027;28;97770;-70
2023/10/22 11:40:53;;;;;;;;;;;18.00;63.50;;;;;;10236958;28;94406;-70
2023/10/22 11:45:56;;;;;;;;;;;18.00;63.60;;;;;;10237586;28;94494;-70
2023/10/22 11:50:59;;;;;;;;;;;18.00;64.70;;;;;;10236855;28;93479;-70
2023/10/22 11:56:02;;;;;;;;;;;17.90;63.60;;;;;;10235465;28;93955;-71
2023/10/22 12:01:04;;;;;;;;;;;17.90;63.60;;;;;;10233989;28;92950;-71
2023/10/22 12:06:05;;;;;;;;;;;17.90;63.70;;;;;;10235689;28;94617;-71
2023/10/22 12:11:07;;;;;;;;;;;17.90;63.80;;;;;;10237526;28;93989;-70
2023/10/22 12:16:09;;;;;;;;;;;17.80;63.70;;;;;;10216107;28;93754;-71
2023/10/22 12:21:11;;;;;;;;;;;17.80;63.90;;;;;;10230813;28;94506;-71
2023/10/22 12:26:13;;;;;;;;;;;17.80;63.80;;;;;;10227534;28;99386;-71
2023/10/22 12:31:15;;;;;;;;;;;17.90;63.80;;;;;;10224690;28;94462;-71
2023/10/22 12:36:17;;;;;;;;;;;17.90;63.80;;;;;;10234834;28;94563;-72
2023/10/22 12:41:19;;;;;;;;;;;17.90;64.10;;;;;;10230591;28;94400;-73
2023/10/22 12:46:21;;;;;;;;;;;17.90;63.80;;;;;;10219788;28;93753;-72
2023/10/22 12:51:23;;;;;;;;;;;17.90;63.90;;;;;;10221248;28;93590;-71
2023/10/22 12:56:25;;;;;;;;;;;17.90;63.90;;;;;;10239574;28;94106;-73
2023/10/22 13:01:26;;;;;;;;;;;17.90;63.90;;;;;;10210397;28;93070;-73
2023/10/22 13:06:29;;;;;;;;;;;18.00;63.90;;;;;;10235036;28;95764;-73
2023/10/22 13:11:31;;;;;;;;;;;18.00;63.80;;;;;;10228575;28;94595;-72
2023/10/22 13:16:33;;;;;;;;;;;18.00;63.80;;;;;;10238207;28;96810;-72
2023/10/22 13:21:35;;;;;;;;;;;18.00;63.90;;;;;;10196865;28;93481;-72
2023/10/22 13:26:37;;;;;;;;;;;18.00;63.90;;;;;;10209310;28;94045;-72
2023/10/22 13:31:39;;;;;;;;;;;18.00;63.90;;;;;;10231501;28;94420;-73
2023/10/22 13:36:40;;;;;;;;;;;18.00;64.00;;;;;;10251256;28;93641;-72
2023/10/22 13:41:43;;;;;;;;;;;18.00;64.00;;;;;;10240533;28;93820;-72
2023/10/22 13:46:45;;;;;;;;;;;18.00;64.10;;;;;;10236875;28;94421;-72
2023/10/22 13:51:47;;;;;;;;;;;18.00;64.00;;;;;;10230354;28;93193;-72
2023/10/22 13:56:51;;;;;;;;;;;18.00;64.00;;;;;;10220124;28;94424;-72
2023/10/22 14:01:53;;;;;;;;;;;18.00;64.00;;;;;;10228670;28;94560;-72
2023/10/22 14:06:55;;;;;;;;;;;18.00;64.00;;;;;;10221715;28;96118;-71
2023/10/22 14:11:57;;;;;;;;;;;18.00;64.00;;;;;;10226809;28;94566;-71
2023/10/22 14:16:59;;;;;;;;;;;18.00;64.00;;;;;;10230644;28;94177;-71
2023/10/22 14:22:01;;;;;;;;;;;18.00;64.00;;;;;;10225777;28;93506;-70
2023/10/22 14:27:06;;;;;;;;;;;18.00;64.00;;;;;;10230535;28;93162;-71
2023/10/22 14:32:15;;;;;;;;;;;18.00;64.00;;;;;;10224740;28;94388;-72
2023/10/22 14:37:17;;;;;;;;;;;18.00;64.00;;;;;;10225949;28;93479;-71
2023/10/22 14:42:18;;;;;;;;;;;18.00;64.00;;;;;;10225814;28;93586;-71
2023/10/22 14:47:21;;;;;;;;;;;18.00;64.00;;;;;;10232899;28;97468;-71
2023/10/22 14:52:22;;;;;;;;;;;18.00;64.10;;;;;;10227339;28;93946;-71
2023/10/22 14:57:24;;;;;;;;;;;18.00;64.10;;;;;;10242131;28;97181;-72
2023/10/22 15:02:26;;;;;;;;;;;18.00;64.10;;;;;;10230135;28;94448;-71
2023/10/22 15:07:28;;;;;;;;;;;18.00;64.10;;;;;;10220520;28;92614;-71
2023/10/22 15:12:30;;;;;;;;;;;18.00;64.10;;;;;;10230431;28;94067;-71
2023/10/22 15:17:32;;;;;;;;;;;18.00;64.00;;;;;;10238747;28;93840;-71
2023/10/22 15:22:38;;;;;;;;;;;18.00;65.00;;;;;;10243240;28;94865;-72
2023/10/22 15:27:40;;;;;;;;;;;18.00;64.00;;;;;;10224215;28;93330;-71
2023/10/22 15:32:41;;;;;;;;;;;18.00;64.10;;;;;;10226540;28;92586;-72
2023/10/22 15:37:45;;;;;;;;;;;18.00;64.10;;;;;;10242795;28;93314;-72
2023/10/22 15:42:47;;;;;;;;;;;18.00;64.10;;;;;;10232830;28;94425;-72
2023/10/22 15:47:52;;;;;;;;;;;18.00;64.10;;;;;;10223452;28;97033;-72
2023/10/22 15:52:57;;;;;;;;;;;18.00;64.20;;;;;;10243571;28;95656;-72
2023/10/22 15:57:59;;;;;;;;;;;17.90;64.10;;;;;;10245799;28;94644;-71
2023/10/22 16:03:01;;;;;;;;;;;18.00;64.20;;;;;;10238264;28;93222;-73
2023/10/22 16:08:03;;;;;;;;;;;17.90;64.20;;;;;;10243694;28;93469;-71
2023/10/22 16:13:05;;;;;;;;;;;17.90;64.20;;;;;;10230372;28;94304;-71
2023/10/22 16:18:07;;;;;;;;;;;17.90;64.20;;;;;;10238827;28;93418;-72
2023/10/22 16:23:10;;;;;;;;;;;17.90;64.20;;;;;;10238520;28;93851;-71
2023/10/22 16:28:16;;;;;;;;;;;17.90;64.20;;;;;;10240030;28;94437;-72
2023/10/22 16:33:18;;;;;;;;;;;17.80;64.20;;;;;;10238907;28;94548;-72
2023/10/22 16:38:20;;;;;;;;;;;17.80;64.30;;;;;;10234615;28;96082;-71
2023/10/22 16:43:21;;;;;;;;;;;17.90;64.30;;;;;;10221076;28;93492;-71
2023/10/22 16:48:23;;;;;;;;;;;17.80;64.20;;;;;;10240090;28;94112;-71
2023/10/22 16:53:25;;;;;;;;;;;17.90;64.20;;;;;;10239378;28;94073;-72
2023/10/22 16:58:28;;;;;;;;;;;17.90;64.10;;;;;;10250713;28;93689;-71
2023/10/22 17:03:34;;;;;;;;;;;17.90;64.10;;;;;;10239282;28;94499;-72
2023/10/22 17:08:36;;;;;;;;;;;17.90;64.10;;;;;;10234186;28;94616;-72
2023/10/22 17:13:38;;;;;;;;;;;17.90;64.10;;;;;;10230128;28;93697;-72
2023/10/22 17:18:39;;;;;;;;;;;17.90;64.10;;;;;;10223267;28;95500;-72
2023/10/22 17:23:54;;;;;;;;;;;18.00;64.10;;;;;;10217235;28;93514;-72
2023/10/22 17:28:57;;;;;;;;;;;18.00;65.00;;;;;;10236126;28;96153;-72
2023/10/22 17:33:58;;;;;;;;;;;18.00;63.90;;;;;;10238990;28;94602;-71
2023/10/22 17:39:03;;;;;;;;;;;18.00;63.90;;;;;;10237013;28;94181;-71
2023/10/22 17:44:05;;;;;;;;;;;18.00;63.90;;;;;;10213199;28;94338;-72
2023/10/22 17:49:06;;;;;;;;;;;18.00;63.90;;;;;;10233924;28;93824;-72
2023/10/22 17:54:08;;;;;;;;;;;18.10;64.00;;;;;;10222797;28;94974;-72
2023/10/22 17:59:10;;;;;;;;;;;18.10;65.00;;;;;;10235558;28;94358;-72
2023/10/22 18:04:12;;;;;;;;;;;18.10;64.70;;;;;;10235836;28;93736;-71
2023/10/22 18:09:15;;;;;;;;;;;18.10;64.60;;;;;;10216933;28;94431;-71
2023/10/22 18:14:17;;;;;;;;;;;18.10;64.50;;;;;;10221052;28;94627;-70
2023/10/22 18:19:19;;;;;;;;;;;18.10;64.50;;;;;;10202311;28;95917;-71
2023/10/22 18:24:39;;;;;;;;;;;18.10;64.50;;;;;;10233468;28;94782;-71
2023/10/22 18:29:43;;;;;;;;;;;18.10;64.60;;;;;;10238872;28;93546;-71
2023/10/22 18:34:45;;;;;;;;;;;18.10;64.60;;;;;;10221560;28;94807;-72
2023/10/22 18:39:47;;;;;;;;;;;18.10;64.60;;;;;;10225665;28;93230;-70
2023/10/22 18:44:50;;;;;;;;;;;18.10;64.60;;;;;;10235679;28;93699;-70
2023/10/22 18:49:52;;;;;;;;;;;18.10;64.60;;;;;;10230063;28;93290;-71
2023/10/22 18:54:54;;;;;;;;;;;18.10;64.60;;;;;;10235852;28;93570;-70
2023/10/22 18:59:56;;;;;;;;;;;18.10;64.70;;;;;;10226363;28;95345;-70
2023/10/22 19:04:58;;;;;;;;;;;18.10;64.80;;;;;;10212707;28;93474;-70
2023/10/22 19:10:00;;;;;;;;;;;18.10;64.80;;;;;;10222460;28;96499;-70
2023/10/22 19:15:03;;;;;;;;;;;18.10;65.00;;;;;;10238522;28;93333;-70
2023/10/22 19:20:08;;;;;;;;;;;18.10;65.00;;;;;;10241663;28;92889;-69
2023/10/22 19:25:10;;;;;;;;;;;18.10;65.00;;;;;;10243906;28;93853;-70
2023/10/22 19:30:12;;;;;;;;;;;18.10;65.10;;;;;;10238005;28;93321;-70
2023/10/22 19:35:15;;;;;;;;;;;18.00;65.00;;;;;;10218477;28;94776;-70
2023/10/22 19:40:16;;;;;;;;;;;18.00;65.10;;;;;;10230625;28;93454;-70
2023/10/22 19:45:19;;;;;;;;;;;18.00;65.10;;;;;;10214130;28;92746;-70
2023/10/22 19:50:20;;;;;;;;;;;18.00;65.20;;;;;;10242601;28;94826;-70
2023/10/22 19:55:24;;;;;;;;;;;18.00;65.20;;;;;;10232729;28;93940;-70
2023/10/22 20:00:25;;;;;;;;;;;18.00;65.30;;;;;;10215543;28;95882;-70
2023/10/22 20:05:35;;;;;;;;;;;18.00;65.40;;;;;;10214122;28;93476;-69
2023/10/22 20:10:37;;;;;;;;;;;17.90;65.30;;;;;;10220847;28;93756;-70
2023/10/22 20:15:44;;;;;;;;;;;17.90;65.40;;;;;;10239077;28;93385;-70
2023/10/22 20:20:46;;;;;;;;;;;17.90;65.50;;;;;;10237609;28;93628;-70
2023/10/22 20:25:48;;;;;;;;;;;17.90;65.50;;;;;;10241222;28;94633;-70
2023/10/22 20:30:50;;;;;;;;;;;17.90;65.60;;;;;;10229145;28;94748;-69
2023/10/22 20:35:51;;;;;;;;;;;17.80;65.50;;;;;;10219543;28;92807;-70
2023/10/22 20:41:00;;;;;;;;;;;17.80;65.60;;;;;;10237005;28;93916;-70
2023/10/22 20:46:03;;;;;;;;;;;17.80;65.60;;;;;;10234474;28;94390;-70
2023/10/22 20:51:09;;;;;;;;;;;17.80;65.70;;;;;;10238058;28;96977;-70
2023/10/22 20:56:12;;;;;;;;;;;17.80;65.70;;;;;;10240180;28;94632;-70
2023/10/22 21:01:16;;;;;;;;;;;17.80;65.80;;;;;;10235288;28;94529;-70
2023/10/22 21:06:18;;;;;;;;;;;17.70;65.80;;;;;;10224180;28;92938;-69
2023/10/22 21:11:20;;;;;;;;;;;17.80;65.90;;;;;;10213044;28;94583;-69
2023/10/22 21:16:22;;;;;;;;;;;17.70;66.00;;;;;;10237974;28;93844;-69
2023/10/22 21:21:23;;;;;;;;;;;17.70;66.00;;;;;;10237659;28;94234;-69
2023/10/22 21:26:26;;;;;;;;;;;17.70;66.00;;;;;;10228206;28;92956;-69
2023/10/22 21:31:28;;;;;;;;;;;17.70;66.20;;;;;;10239376;28;93447;-69
2023/10/22 21:36:30;;;;;;;;;;;17.70;66.10;;;;;;10234595;28;94572;-69
2023/10/22 21:41:31;;;;;;;;;;;17.70;66.20;;;;;;10230878;28;97284;-69
2023/10/22 21:46:33;;;;;;;;;;;17.70;66.20;;;;;;10223993;28;93844;-69
2023/10/22 21:51:35;;;;;;;;;;;17.70;66.20;;;;;;10220994;28;93801;-69
2023/10/22 21:56:37;;;;;;;;;;;17.70;66.30;;;;;;10237679;28;94634;-69
2023/10/22 22:01:38;;;;;;;;;;;17.70;66.20;;;;;;10234281;28;94151;-70
2023/10/22 22:06:40;;;;;;;;;;;17.70;66.20;;;;;;10209361;28;93764;-72
2023/10/22 22:11:43;;;;;;;;;;;17.70;66.00;;;;;;10217829;28;93559;-72
2023/10/22 22:16:45;;;;;;;;;;;17.70;66.10;;;;;;10220549;28;94152;-72
2023/10/22 22:21:46;;;;;;;;;;;17.70;66.00;;;;;;10238113;28;93467;-73
2023/10/22 22:26:48;;;;;;;;;;;17.70;65.90;;;;;;10234423;28;95400;-72
2023/10/22 22:31:52;;;;;;;;;;;17.70;65.90;;;;;;10232018;28;117208;-72
2023/10/22 22:36:54;;;;;;;;;;;17.70;65.70;;;;;;10242248;28;94423;-72
2023/10/22 22:41:56;;;;;;;;;;;17.60;65.60;;;;;;10233921;28;94453;-72
2023/10/22 22:46:58;;;;;;;;;;;17.60;65.60;;;;;;10243424;28;94701;-72
2023/10/22 22:52:00;;;;;;;;;;;17.70;65.60;;;;;;10242935;28;94779;-71
2023/10/22 22:57:02;;;;;;;;;;;17.70;65.40;;;;;;10242669;28;94400;-71
2023/10/22 23:02:04;;;;;;;;;;;17.70;65.40;;;;;;10242444;28;93308;-72
2023/10/22 23:07:06;;;;;;;;;;;17.60;65.30;;;;;;10243100;28;93142;-72
2023/10/22 23:12:08;;;;;;;;;;;17.60;65.10;;;;;;10240478;28;94391;-72
2023/10/22 23:17:09;;;;;;;;;;;17.60;65.10;;;;;;10232116;28;93481;-72
2023/10/22 23:22:12;;;;;;;;;;;17.60;65.10;;;;;;10231473;28;96518;-72
2023/10/22 23:27:14;;;;;;;;;;;17.60;65.00;;;;;;10232847;28;95076;-71
2023/10/22 23:32:16;;;;;;;;;;;17.60;65.00;;;;;;10232457;28;94862;-71
2023/10/22 23:37:18;;;;;;;;;;;17.60;65.00;;;;;;10240634;28;93506;-71
2023/10/22 23:42:20;;;;;;;;;;;17.60;65.00;;;;;;10237451;28;93377;-71
2023/10/22 23:47:21;;;;;;;;;;;17.60;64.90;;;;;;10235342;28;93045;-71
2023/10/22 23:52:23;;;;;;;;;;;17.60;64.90;;;;;;10226253;28;94786;-70
2023/10/22 23:57:25;;;;;;;;;;;17.60;64.80;;;;;;10235594;28;92756;-70
